sensor_id;sensor_type;location;lat;lon;timestamp;pressure;altitude;pressure_sealevel;temperature;humidity
23118;BME280;11728;50.624;6.014;2023-04-08T00:00:59;98848.72;;;8.98;92.87
23118;BME280;11728;50.624;6.014;2023-04-08T00:06:00;98855.72;;;9.01;92.28
23118;BME280;11728;50.624;6.014;2023-04-08T00:11:02;98847.78;;;9.02;92.21
23118;BME280;11728;50.624;6.014;2023-04-08T00:16:02;98851.31;;;9.01;92.26
23118;BME280;11728;50.624;6.014;2023-04-08T00:21:03;98852.09;;;9.11;91.96
23118;BME280;11728;50.624;6.014;2023-04-08T00:26:03;98853.00;;;9.10;91.75
23118;BME280;11728;50.624;6.014;2023-04-08T00:31:04;98860.09;;;9.02;92.33
23118;BME280;11728;50.624;6.014;2023-04-08T00:36:04;98861.88;;;8.97;92.35
23118;BME280;11728;50.624;6.014;2023-04-08T00:41:05;98853.06;;;9.01;92.12
23118;BME280;11728;50.624;6.014;2023-04-08T00:46:05;98853.09;;;8.98;92.51
23118;BME280;11728;50.624;6.014;2023-04-08T00:51:06;98857.50;;;8.97;92.72
23118;BME280;11728;50.624;6.014;2023-04-08T00:56:07;98859.22;;;9.00;92.87
23118;BME280;11728;50.624;6.014;2023-04-08T01:01:13;98856.56;;;9.04;92.64
23118;BME280;11728;50.624;6.014;2023-04-08T01:06:31;98862.69;;;9.05;92.35
23118;BME280;11728;50.624;6.014;2023-04-08T01:11:34;98855.75;;;8.96;92.74
23118;BME280;11728;50.624;6.014;2023-04-08T01:16:37;98847.88;;;8.95;93.43
23118;BME280;11728;50.624;6.014;2023-04-08T01:21:39;98856.66;;;8.94;92.91
23118;BME280;11728;50.624;6.014;2023-04-08T01:26:40;98853.16;;;8.89;92.89
23118;BME280;11728;50.624;6.014;2023-04-08T01:31:41;98852.28;;;8.90;93.56
23118;BME280;11728;50.624;6.014;2023-04-08T01:36:44;98857.53;;;8.93;93.02
23118;BME280;11728;50.624;6.014;2023-04-08T01:41:45;98862.78;;;8.94;93.17
23118;BME280;11728;50.624;6.014;2023-04-08T01:46:48;98866.28;;;8.96;93.12
23118;BME280;11728;50.624;6.014;2023-04-08T01:51:50;98855.78;;;8.89;93.36
23118;BME280;11728;50.624;6.014;2023-04-08T01:56:53;98847.13;;;8.70;93.44
23118;BME280;11728;50.624;6.014;2023-04-08T02:01:56;98856.91;;;8.55;94.17
23118;BME280;11728;50.624;6.014;2023-04-08T02:06:57;98858.66;;;8.56;94.42
23118;BME280;11728;50.624;6.014;2023-04-08T02:11:58;98861.31;;;8.48;94.19
23118;BME280;11728;50.624;6.014;2023-04-08T02:17:11;98856.13;;;8.40;94.98
23118;BME280;11728;50.624;6.014;2023-04-08T02:22:18;98859.69;;;8.28;95.87
23118;BME280;11728;50.624;6.014;2023-04-08T02:27:24;98863.19;;;8.27;95.92
23118;BME280;11728;50.624;6.014;2023-04-08T02:32:27;98858.75;;;8.38;95.94
23118;BME280;11728;50.624;6.014;2023-04-08T02:37:29;98867.47;;;8.47;95.11
23118;BME280;11728;50.624;6.014;2023-04-08T02:42:29;98873.69;;;8.36;95.72
23118;BME280;11728;50.624;6.014;2023-04-08T02:47:30;98876.31;;;8.30;96.78
23118;BME280;11728;50.624;6.014;2023-04-08T02:52:30;98871.94;;;8.31;97.18
23118;BME280;11728;50.624;6.014;2023-04-08T02:57:31;98864.00;;;8.38;97.38
23118;BME280;11728;50.624;6.014;2023-04-08T03:02:32;98867.50;;;8.43;97.79
23118;BME280;11728;50.624;6.014;2023-04-08T03:07:32;98876.25;;;8.51;97.49
23118;BME280;11728;50.624;6.014;2023-04-08T03:12:32;98874.41;;;8.59;97.71
23118;BME280;11728;50.624;6.014;2023-04-08T03:17:33;98878.78;;;8.64;97.17
23118;BME280;11728;50.624;6.014;2023-04-08T03:22:35;98887.56;;;8.65;97.51
23118;BME280;11728;50.624;6.014;2023-04-08T03:27:35;98884.06;;;8.63;97.44
23118;BME280;11728;50.624;6.014;2023-04-08T03:32:35;98884.94;;;8.65;97.37
23118;BME280;11728;50.624;6.014;2023-04-08T03:37:36;98886.66;;;8.69;97.47
23118;BME280;11728;50.624;6.014;2023-04-08T03:42:36;98886.63;;;8.72;97.28
23118;BME280;11728;50.624;6.014;2023-04-08T03:47:37;98884.00;;;8.73;97.29
23118;BME280;11728;50.624;6.014;2023-04-08T03:52:37;98887.50;;;8.72;97.53
23118;BME280;11728;50.624;6.014;2023-04-08T03:57:37;98887.50;;;8.75;97.61
23118;BME280;11728;50.624;6.014;2023-04-08T04:02:38;98889.22;;;8.78;97.54
23118;BME280;11728;50.624;6.014;2023-04-08T04:07:38;98887.50;;;8.75;97.64
23118;BME280;11728;50.624;6.014;2023-04-08T04:12:38;98886.63;;;8.73;97.50
23118;BME280;11728;50.624;6.014;2023-04-08T04:17:39;98888.34;;;8.76;97.75
23118;BME280;11728;50.624;6.014;2023-04-08T04:22:39;98893.66;;;8.73;97.90
23118;BME280;11728;50.624;6.014;2023-04-08T04:27:40;98897.16;;;8.73;98.32
23118;BME280;11728;50.624;6.014;2023-04-08T04:32:44;98898.03;;;8.75;98.25
23118;BME280;11728;50.624;6.014;2023-04-08T04:37:44;98905.91;;;8.77;97.99
23118;BME280;11728;50.624;6.014;2023-04-08T04:42:44;98900.63;;;8.78;98.01
23118;BME280;11728;50.624;6.014;2023-04-08T04:47:45;98912.91;;;8.81;98.14
23118;BME280;11728;50.624;6.014;2023-04-08T04:52:45;98911.16;;;8.77;97.99
23118;BME280;11728;50.624;6.014;2023-04-08T04:57:45;98907.66;;;8.75;97.97
23118;BME280;11728;50.624;6.014;2023-04-08T05:02:46;98910.31;;;8.70;98.40
23118;BME280;11728;50.624;6.014;2023-04-08T05:07:46;98912.97;;;8.69;97.87
23118;BME280;11728;50.624;6.014;2023-04-08T05:12:47;98920.00;;;8.73;97.85
23118;BME280;11728;50.624;6.014;2023-04-08T05:17:47;98924.34;;;8.75;97.56
23118;BME280;11728;50.624;6.014;2023-04-08T05:22:48;98921.69;;;8.77;97.54
23118;BME280;11728;50.624;6.014;2023-04-08T05:27:48;98927.81;;;8.80;97.06
23118;BME280;11728;50.624;6.014;2023-04-08T05:32:49;98925.19;;;8.82;96.69
23118;BME280;11728;50.624;6.014;2023-04-08T05:37:49;98938.31;;;8.86;97.12
23118;BME280;11728;50.624;6.014;2023-04-08T05:42:50;98936.53;;;8.94;97.02
23118;BME280;11728;50.624;6.014;2023-04-08T05:47:50;98938.19;;;9.07;96.16
23118;BME280;11728;50.624;6.014;2023-04-08T05:52:50;98946.16;;;9.00;96.16
23118;BME280;11728;50.624;6.014;2023-04-08T05:57:51;98952.28;;;8.99;96.74
23118;BME280;11728;50.624;6.014;2023-04-08T06:02:51;98959.31;;;9.03;96.53
23118;BME280;11728;50.624;6.014;2023-04-08T06:07:51;98956.63;;;9.09;96.79
23118;BME280;11728;50.624;6.014;2023-04-08T06:12:52;98972.41;;;9.12;96.97
23118;BME280;11728;50.624;6.014;2023-04-08T06:17:52;98969.78;;;9.10;97.47
23118;BME280;11728;50.624;6.014;2023-04-08T06:22:53;98973.19;;;9.25;97.59
23118;BME280;11728;50.624;6.014;2023-04-08T06:27:53;98972.19;;;9.41;96.83
23118;BME280;11728;50.624;6.014;2023-04-08T06:32:53;98977.50;;;9.40;96.99
23118;BME280;11728;50.624;6.014;2023-04-08T06:37:54;98973.03;;;9.51;96.68
23118;BME280;11728;50.624;6.014;2023-04-08T06:42:54;98987.13;;;9.42;96.71
23118;BME280;11728;50.624;6.014;2023-04-08T06:47:54;98983.69;;;9.36;97.14
23118;BME280;11728;50.624;6.014;2023-04-08T06:52:55;98996.84;;;9.37;97.17
23118;BME280;11728;50.624;6.014;2023-04-08T06:57:56;98999.44;;;9.40;97.27
23118;BME280;11728;50.624;6.014;2023-04-08T07:02:56;99003.00;;;9.36;97.44
23118;BME280;11728;50.624;6.014;2023-04-08T07:07:56;99004.81;;;9.28;98.16
23118;BME280;11728;50.624;6.014;2023-04-08T07:12:57;99012.69;;;9.36;98.43
23118;BME280;11728;50.624;6.014;2023-04-08T07:17:57;99025.75;;;9.48;98.02
23118;BME280;11728;50.624;6.014;2023-04-08T07:22:58;99030.06;;;9.61;97.59
23118;BME280;11728;50.624;6.014;2023-04-08T07:27:59;99036.13;;;9.76;97.38
23118;BME280;11728;50.624;6.014;2023-04-08T07:32:59;99033.47;;;9.76;97.37
23118;BME280;11728;50.624;6.014;2023-04-08T07:38:00;99029.91;;;9.80;97.30
23118;BME280;11728;50.624;6.014;2023-04-08T07:43:00;99035.91;;;10.03;97.19
23118;BME280;11728;50.624;6.014;2023-04-08T07:48:00;99032.06;;;10.37;96.36
23118;BME280;11728;50.624;6.014;2023-04-08T07:53:01;99042.47;;;10.50;95.61
23118;BME280;11728;50.624;6.014;2023-04-08T07:58:01;99053.03;;;10.53;95.63
23118;BME280;11728;50.624;6.014;2023-04-08T08:03:02;99049.38;;;10.63;95.44
23118;BME280;11728;50.624;6.014;2023-04-08T08:08:02;99051.91;;;10.72;95.18
23118;BME280;11728;50.624;6.014;2023-04-08T08:13:03;99053.56;;;10.82;94.79
23118;BME280;11728;50.624;6.014;2023-04-08T08:18:05;99065.72;;;10.98;93.98
23118;BME280;11728;50.624;6.014;2023-04-08T08:23:05;99059.47;;;11.03;93.55
23118;BME280;11728;50.624;6.014;2023-04-08T08:28:06;99063.75;;;11.13;93.15
23118;BME280;11728;50.624;6.014;2023-04-08T08:33:09;99072.56;;;11.15;92.43
23118;BME280;11728;50.624;6.014;2023-04-08T08:38:10;99065.72;;;10.96;92.74
23118;BME280;11728;50.624;6.014;2023-04-08T08:43:11;99079.63;;;11.13;91.95
23118;BME280;11728;50.624;6.014;2023-04-08T08:48:13;99082.16;;;11.22;91.71
23118;BME280;11728;50.624;6.014;2023-04-08T08:53:13;99083.00;;;11.23;91.45
23118;BME280;11728;50.624;6.014;2023-04-08T08:58:14;99084.59;;;11.37;90.67
23118;BME280;11728;50.624;6.014;2023-04-08T09:03:24;99082.50;;;11.63;89.81
23118;BME280;11728;50.624;6.014;2023-04-08T09:08:36;99085.16;;;11.61;89.31
23118;BME280;11728;50.624;6.014;2023-04-08T09:13:37;99080.78;;;11.59;89.43
23118;BME280;11728;50.624;6.014;2023-04-08T09:18:38;99092.75;;;11.84;88.88
23118;BME280;11728;50.624;6.014;2023-04-08T09:23:49;99086.59;;;12.37;87.35
23118;BME280;11728;50.624;6.014;2023-04-08T09:29:23;99086.63;;;12.84;85.44
23118;BME280;11728;50.624;6.014;2023-04-08T09:34:24;99085.84;;;12.78;85.58
23118;BME280;11728;50.624;6.014;2023-04-08T09:39:26;99095.28;;;12.94;84.89
23118;BME280;11728;50.624;6.014;2023-04-08T09:44:27;99088.69;;;13.55;83.10
23118;BME280;11728;50.624;6.014;2023-04-08T09:49:28;99092.84;;;14.75;79.88
23118;BME280;11728;50.624;6.014;2023-04-08T09:59:50;99084.47;;;17.11;69.30
23118;BME280;11728;50.624;6.014;2023-04-08T10:04:52;99089.16;;;15.73;71.49
23118;BME280;11728;50.624;6.014;2023-04-08T10:09:56;99089.91;;;15.17;71.66
23118;BME280;11728;50.624;6.014;2023-04-08T10:15:28;99076.69;;;17.05;65.78
23118;BME280;11728;50.624;6.014;2023-04-08T10:25:41;99092.50;;;15.19;67.40
23118;BME280;11728;50.624;6.014;2023-04-08T10:35:51;99076.63;;;16.83;65.03
23118;BME280;11728;50.624;6.014;2023-04-08T10:40:53;99065.69;;;19.10;58.11
23118;BME280;11728;50.624;6.014;2023-04-08T10:45:54;99066.94;;;18.81;57.44
23118;BME280;11728;50.624;6.014;2023-04-08T10:50:56;99065.13;;;18.41;58.38
23118;BME280;11728;50.624;6.014;2023-04-08T10:56:06;99053.91;;;20.09;54.00
23118;BME280;11728;50.624;6.014;2023-04-08T11:01:07;99052.94;;;21.14;51.55
23118;BME280;11728;50.624;6.014;2023-04-08T11:06:08;99065.31;;;19.57;51.98
23118;BME280;11728;50.624;6.014;2023-04-08T11:11:08;99060.41;;;18.88;52.41
23118;BME280;11728;50.624;6.014;2023-04-08T11:16:10;99049.06;;;19.60;51.17
23118;BME280;11728;50.624;6.014;2023-04-08T11:21:11;99055.56;;;19.36;48.34
23118;BME280;11728;50.624;6.014;2023-04-08T11:26:12;99054.69;;;19.35;48.15
23118;BME280;11728;50.624;6.014;2023-04-08T11:31:14;99054.09;;;18.89;49.06
23118;BME280;11728;50.624;6.014;2023-04-08T11:36:17;99061.63;;;18.60;49.32
23118;BME280;11728;50.624;6.014;2023-04-08T11:41:17;99053.84;;;17.69;49.26
23118;BME280;11728;50.624;6.014;2023-04-08T11:46:18;99066.47;;;17.41;49.51
23118;BME280;11728;50.624;6.014;2023-04-08T11:51:19;99059.78;;;17.52;48.91
23118;BME280;11728;50.624;6.014;2023-04-08T11:56:21;99059.28;;;17.43;49.32
23118;BME280;11728;50.624;6.014;2023-04-08T12:01:25;99061.28;;;17.36;49.40
23118;BME280;11728;50.624;6.014;2023-04-08T12:06:27;99068.09;;;16.96;49.75
23118;BME280;11728;50.624;6.014;2023-04-08T12:11:27;99066.88;;;16.56;49.99
23118;BME280;11728;50.624;6.014;2023-04-08T12:16:28;99070.28;;;16.61;50.45
23118;BME280;11728;50.624;6.014;2023-04-08T12:21:28;99069.31;;;16.63;49.60
23118;BME280;11728;50.624;6.014;2023-04-08T12:26:28;99069.69;;;17.01;49.24
23118;BME280;11728;50.624;6.014;2023-04-08T12:31:29;99069.91;;;17.20;48.99
23118;BME280;11728;50.624;6.014;2023-04-08T12:36:30;99058.50;;;17.85;47.10
23118;BME280;11728;50.624;6.014;2023-04-08T12:41:31;99060.03;;;18.76;45.87
23118;BME280;11728;50.624;6.014;2023-04-08T12:46:31;99046.28;;;20.18;44.82
23118;BME280;11728;50.624;6.014;2023-04-08T12:51:31;99045.91;;;21.44;42.81
23118;BME280;11728;50.624;6.014;2023-04-08T12:56:32;99059.75;;;20.87;42.79
23118;BME280;11728;50.624;6.014;2023-04-08T13:01:33;99053.19;;;20.40;41.34
23118;BME280;11728;50.624;6.014;2023-04-08T13:06:33;99037.34;;;21.37;41.03
23118;BME280;11728;50.624;6.014;2023-04-08T13:11:33;99038.81;;;21.75;38.78
23118;BME280;11728;50.624;6.014;2023-04-08T13:16:34;99037.28;;;19.64;40.32
23118;BME280;11728;50.624;6.014;2023-04-08T13:21:34;99044.19;;;18.91;41.83
23118;BME280;11728;50.624;6.014;2023-04-08T13:26:34;99031.41;;;19.56;40.73
23118;BME280;11728;50.624;6.014;2023-04-08T13:31:35;99030.91;;;19.48;41.27
23118;BME280;11728;50.624;6.014;2023-04-08T13:36:35;99023.69;;;19.30;41.97
23118;BME280;11728;50.624;6.014;2023-04-08T13:41:35;99033.75;;;18.85;42.19
23118;BME280;11728;50.624;6.014;2023-04-08T13:46:39;99032.38;;;18.36;42.21
23118;BME280;11728;50.624;6.014;2023-04-08T13:51:39;99029.69;;;18.36;42.44
23118;BME280;11728;50.624;6.014;2023-04-08T13:56:39;99030.34;;;18.41;42.32
23118;BME280;11728;50.624;6.014;2023-04-08T14:01:40;99027.13;;;17.90;42.89
23118;BME280;11728;50.624;6.014;2023-04-08T14:06:40;99018.47;;;18.05;43.93
23118;BME280;11728;50.624;6.014;2023-04-08T14:11:45;99018.00;;;18.17;44.51
23118;BME280;11728;50.624;6.014;2023-04-08T14:16:46;99020.03;;;17.89;45.24
23118;BME280;11728;50.624;6.014;2023-04-08T14:21:47;99006.91;;;17.83;46.22
23118;BME280;11728;50.624;6.014;2023-04-08T14:26:48;99016.34;;;18.55;45.17
23118;BME280;11728;50.624;6.014;2023-04-08T14:31:48;99012.75;;;18.14;45.34
23118;BME280;11728;50.624;6.014;2023-04-08T14:36:51;99018.53;;;17.82;45.01
23118;BME280;11728;50.624;6.014;2023-04-08T14:41:51;99014.34;;;18.18;43.78
23118;BME280;11728;50.624;6.014;2023-04-08T14:46:52;99017.91;;;17.97;44.31
23118;BME280;11728;50.624;6.014;2023-04-08T14:51:52;99013.22;;;17.59;45.91
23118;BME280;11728;50.624;6.014;2023-04-08T14:56:53;99021.19;;;16.91;46.39
23118;BME280;11728;50.624;6.014;2023-04-08T15:01:53;99021.56;;;16.80;45.56
23118;BME280;11728;50.624;6.014;2023-04-08T15:06:54;99022.16;;;17.12;46.23
23118;BME280;11728;50.624;6.014;2023-04-08T15:11:54;99025.78;;;17.34;45.99
23118;BME280;11728;50.624;6.014;2023-04-08T15:16:55;99025.31;;;17.46;47.85
23118;BME280;11728;50.624;6.014;2023-04-08T15:21:55;99024.19;;;17.96;46.67
23118;BME280;11728;50.624;6.014;2023-04-08T15:26:56;99017.06;;;17.52;43.59
23118;BME280;11728;50.624;6.014;2023-04-08T15:31:57;99025.97;;;16.57;42.68
23118;BME280;11728;50.624;6.014;2023-04-08T15:36:57;99034.31;;;16.20;43.52
23118;BME280;11728;50.624;6.014;2023-04-08T15:41:58;99034.81;;;15.78;43.47
23118;BME280;11728;50.624;6.014;2023-04-08T15:46:59;99034.06;;;15.46;44.01
23118;BME280;11728;50.624;6.014;2023-04-08T15:51:59;99044.66;;;15.47;44.42
23118;BME280;11728;50.624;6.014;2023-04-08T15:57:00;99039.06;;;15.28;44.55
23118;BME280;11728;50.624;6.014;2023-04-08T16:02:06;99033.91;;;15.22;44.80
23118;BME280;11728;50.624;6.014;2023-04-08T16:07:07;99040.72;;;15.32;44.73
23118;BME280;11728;50.624;6.014;2023-04-08T16:12:07;99035.72;;;15.20;44.64
23118;BME280;11728;50.624;6.014;2023-04-08T16:17:07;99037.00;;;15.07;44.33
23118;BME280;11728;50.624;6.014;2023-04-08T16:22:08;99038.88;;;15.03;44.29
23118;BME280;11728;50.624;6.014;2023-04-08T16:27:08;99036.53;;;14.93;44.08
23118;BME280;11728;50.624;6.014;2023-04-08T16:32:09;99048.19;;;14.87;44.80
23118;BME280;11728;50.624;6.014;2023-04-08T16:37:09;99048.69;;;14.69;45.31
23118;BME280;11728;50.624;6.014;2023-04-08T16:42:10;99045.34;;;14.63;46.43
23118;BME280;11728;50.624;6.014;2023-04-08T16:47:11;99044.56;;;14.58;47.28
23118;BME280;11728;50.624;6.014;2023-04-08T16:52:11;99053.31;;;14.30;48.79
23118;BME280;11728;50.624;6.014;2023-04-08T16:57:12;99045.81;;;14.10;49.89
23118;BME280;11728;50.624;6.014;2023-04-08T17:02:12;99037.28;;;13.96;50.58
23118;BME280;11728;50.624;6.014;2023-04-08T17:07:12;99043.09;;;13.76;51.07
23118;BME280;11728;50.624;6.014;2023-04-08T17:12:13;99040.59;;;13.70;51.97
23118;BME280;11728;50.624;6.014;2023-04-08T17:17:13;99046.06;;;13.62;52.18
23118;BME280;11728;50.624;6.014;2023-04-08T17:22:14;99038.88;;;13.67;52.30
23118;BME280;11728;50.624;6.014;2023-04-08T17:27:14;99047.63;;;13.71;51.95
23118;BME280;11728;50.624;6.014;2023-04-08T17:32:14;99047.41;;;13.42;52.43
23118;BME280;11728;50.624;6.014;2023-04-08T17:37:15;99057.72;;;13.16;52.87
23118;BME280;11728;50.624;6.014;2023-04-08T17:42:15;99064.41;;;12.91;53.15
23118;BME280;11728;50.624;6.014;2023-04-08T17:47:16;99068.47;;;12.63;53.14
23118;BME280;11728;50.624;6.014;2023-04-08T17:52:16;99072.13;;;12.55;53.22
23118;BME280;11728;50.624;6.014;2023-04-08T17:57:17;99072.53;;;12.34;53.26
23118;BME280;11728;50.624;6.014;2023-04-08T18:02:20;99079.81;;;12.20;53.24
23118;BME280;11728;50.624;6.014;2023-04-08T18:07:20;99080.78;;;12.15;53.56
23118;BME280;11728;50.624;6.014;2023-04-08T18:12:21;99087.09;;;12.08;53.34
23118;BME280;11728;50.624;6.014;2023-04-08T18:17:21;99091.66;;;11.98;53.49
23118;BME280;11728;50.624;6.014;2023-04-08T18:22:22;99094.41;;;11.91;53.74
23118;BME280;11728;50.624;6.014;2023-04-08T18:27:22;99091.94;;;11.80;53.89
23118;BME280;11728;50.624;6.014;2023-04-08T18:32:23;99100.91;;;11.70;54.33
23118;BME280;11728;50.624;6.014;2023-04-08T18:37:23;99107.16;;;11.65;54.30
23118;BME280;11728;50.624;6.014;2023-04-08T18:42:23;99109.19;;;11.45;54.51
23118;BME280;11728;50.624;6.014;2023-04-08T18:47:24;99109.44;;;11.24;55.05
23118;BME280;11728;50.624;6.014;2023-04-08T18:52:26;99113.97;;;11.13;55.23
23118;BME280;11728;50.624;6.014;2023-04-08T18:57:26;99115.94;;;10.96;55.53
23118;BME280;11728;50.624;6.014;2023-04-08T19:02:29;99108.97;;;10.89;55.83
23118;BME280;11728;50.624;6.014;2023-04-08T19:07:29;99117.94;;;10.75;56.11
23118;BME280;11728;50.624;6.014;2023-04-08T19:12:30;99115.44;;;10.59;56.61
23118;BME280;11728;50.624;6.014;2023-04-08T19:17:30;99118.19;;;10.48;57.00
23118;BME280;11728;50.624;6.014;2023-04-08T19:22:31;99122.75;;;10.30;57.50
23118;BME280;11728;50.624;6.014;2023-04-08T19:27:32;99126.38;;;10.20;57.86
23118;BME280;11728;50.624;6.014;2023-04-08T19:32:33;99132.66;;;10.04;58.77
23118;BME280;11728;50.624;6.014;2023-04-08T19:37:34;99128.31;;;9.93;59.16
23118;BME280;11728;50.624;6.014;2023-04-08T19:42:35;99131.91;;;9.84;60.14
23118;BME280;11728;50.624;6.014;2023-04-08T19:47:35;99139.88;;;9.71;60.63
23118;BME280;11728;50.624;6.014;2023-04-08T19:52:36;99133.78;;;9.66;61.23
23118;BME280;11728;50.624;6.014;2023-04-08T19:57:38;99133.75;;;9.64;61.69
23118;BME280;11728;50.624;6.014;2023-04-08T20:02:38;99131.13;;;9.60;62.01
23118;BME280;11728;50.624;6.014;2023-04-08T20:07:39;99144.41;;;9.46;63.06
23118;BME280;11728;50.624;6.014;2023-04-08T20:12:40;99155.88;;;9.33;64.32
23118;BME280;11728;50.624;6.014;2023-04-08T20:17:40;99153.28;;;9.18;65.27
23118;BME280;11728;50.624;6.014;2023-04-08T20:22:43;99156.88;;;8.97;66.63
23118;BME280;11728;50.624;6.014;2023-04-08T20:27:45;99156.94;;;8.76;68.00
23118;BME280;11728;50.624;6.014;2023-04-08T20:32:45;99154.34;;;8.59;68.58
23118;BME280;11728;50.624;6.014;2023-04-08T20:37:46;99164.00;;;8.44;69.52
23118;BME280;11728;50.624;6.014;2023-04-08T20:42:50;99159.63;;;8.19;71.41
23118;BME280;11728;50.624;6.014;2023-04-08T20:47:50;99157.81;;;8.03;72.41
23118;BME280;11728;50.624;6.014;2023-04-08T20:52:51;99159.56;;;7.94;73.17
23118;BME280;11728;50.624;6.014;2023-04-08T20:57:52;99157.78;;;7.76;75.12
23118;BME280;11728;50.624;6.014;2023-04-08T21:02:52;99159.47;;;7.61;75.89
23118;BME280;11728;50.624;6.014;2023-04-08T21:07:55;99155.94;;;7.49;76.44
23118;BME280;11728;50.624;6.014;2023-04-08T21:12:56;99151.53;;;7.39;77.62
23118;BME280;11728;50.624;6.014;2023-04-08T21:17:56;99143.59;;;7.25;78.77
23118;BME280;11728;50.624;6.014;2023-04-08T21:22:56;99153.19;;;7.14;79.89
23118;BME280;11728;50.624;6.014;2023-04-08T21:27:58;99152.28;;;7.06;80.19
23118;BME280;11728;50.624;6.014;2023-04-08T21:32:59;99147.81;;;6.92;81.04
23118;BME280;11728;50.624;6.014;2023-04-08T21:37:59;99146.03;;;6.85;81.51
23118;BME280;11728;50.624;6.014;2023-04-08T21:42:59;99145.13;;;6.80;81.92
23118;BME280;11728;50.624;6.014;2023-04-08T21:48:00;99156.47;;;6.76;82.15
23118;BME280;11728;50.624;6.014;2023-04-08T21:53:00;99151.19;;;6.67;82.50
23118;BME280;11728;50.624;6.014;2023-04-08T21:58:01;99154.63;;;6.57;83.11
23118;BME280;11728;50.624;6.014;2023-04-08T22:03:01;99145.84;;;6.52;83.38
23118;BME280;11728;50.624;6.014;2023-04-08T22:08:01;99146.69;;;6.48;83.30
23118;BME280;11728;50.624;6.014;2023-04-08T22:13:02;99146.59;;;6.38;83.78
23118;BME280;11728;50.624;6.014;2023-04-08T22:18:02;99140.44;;;6.30;84.19
23118;BME280;11728;50.624;6.014;2023-04-08T22:23:04;99150.88;;;6.22;84.73
23118;BME280;11728;50.624;6.014;2023-04-08T22:28:04;99142.03;;;6.11;85.41
23118;BME280;11728;50.624;6.014;2023-04-08T22:33:05;99148.06;;;6.03;86.09
23118;BME280;11728;50.624;6.014;2023-04-08T22:38:05;99138.47;;;6.04;86.46
23118;BME280;11728;50.624;6.014;2023-04-08T22:43:06;99136.75;;;6.08;86.08
23118;BME280;11728;50.624;6.014;2023-04-08T22:48:06;99132.34;;;6.06;86.17
23118;BME280;11728;50.624;6.014;2023-04-08T22:53:07;99134.88;;;5.96;86.69
23118;BME280;11728;50.624;6.014;2023-04-08T22:58:07;99131.38;;;5.91;87.06
23118;BME280;11728;50.624;6.014;2023-04-08T23:03:07;99145.38;;;5.93;86.73
23118;BME280;11728;50.624;6.014;2023-04-08T23:08:08;99137.47;;;5.90;86.47
23118;BME280;11728;50.624;6.014;2023-04-08T23:13:08;99139.19;;;5.88;86.39
23118;BME280;11728;50.624;6.014;2023-04-08T23:18:09;99134.84;;;5.88;86.80
23118;BME280;11728;50.624;6.014;2023-04-08T23:23:09;99130.50;;;5.93;86.62
23118;BME280;11728;50.624;6.014;2023-04-08T23:28:10;99133.97;;;5.92;87.18
23118;BME280;11728;50.624;6.014;2023-04-08T23:33:10;99136.56;;;5.88;87.38
23118;BME280;11728;50.624;6.014;2023-04-08T23:38:10;99135.72;;;5.90;87.32
23118;BME280;11728;50.624;6.014;2023-04-08T23:43:11;99140.03;;;5.84;87.59
23118;BME280;11728;50.624;6.014;2023-04-08T23:48:11;99129.44;;;5.75;88.76
23118;BME280;11728;50.624;6.014;2023-04-08T23:53:11;99131.16;;;5.73;89.79
23118;BME280;11728;50.624;6.014;2023-04-08T23:58:12;99134.56;;;5.63;90.18
